Knoxville, TN (37997)

10:56 AM EDT on September 02, 2014 (GMT -0400)
North Knoxville | Change Station
CLOSE
Current Station
Personal Weather Station
Location: Knoxville, TN
Elevation: 988 ft
Nearby Weather Stations

Elev 988 ft 36.01 °N, 83.93 °W | Updated 5 minutes ago

Partly Cloudy
Partly Cloudy
88.0 °F
Feels Like 97 °F
N
4.2
Wind Variable Wind from SSW

Today
High -- | Low -- °F
--% Chance of Precip.
Yesterday
High -- | Low -- °F
Precip. -- in
7:08 AM 8:01 PM
First Quarter, 52% visible
Pressure 30.06 in
Visibility 10.0 miles
Clouds Few 4500 ft
Few 8000 ft
Scattered Clouds 20000 ft
Scattered Clouds 25000 ft
Heat Index 97 °F
Dew Point 74 °F
Humidity 63%
Rainfall 0.00 in
Snow Depth Not available.
UV 3 out of 12
Pollen 10.20 out of 12
Ozone Good
Flu Activity Not available.
METAR KTYS 021353Z 22005KT 10SM FEW045 FEW080 SCT200 SCT250 26/22 A3010 RMK AO2 SLP179 T02610222

More Conditions Fewer Conditions

Pressure 30.06 in
Visibility 10.0 miles
Clouds Few 4500 ft
Few 8000 ft
Scattered Clouds 20000 ft
Scattered Clouds 25000 ft
Heat Index 97 °F
Dew Point 74 °F
Humidity 63%
Rainfall 0.00 in
Snow Depth Not available.
UV 3 out of 12
Pollen 10.20 out of 12
Ozone Good
Flu Activity Not available.
METAR KTYS 021353Z 22005KT 10SM FEW045 FEW080 SCT200 SCT250 26/22 A3010 RMK AO2 SLP179 T02610222

More Conditions Fewer Conditions

10-Day Weather Forecast

Almanac

Astronomy

Sep. 02, 2014 Rise Set
Actual Time 7:08 AM EDT 8:01 PM EDT
Civil Twilight 6:42 AM EDT 8:27 PM EDT
Nautical Twilight 6:11 AM EDT 8:58 PM EDT
Astronomical Twilight 5:39 AM EDT 9:30 PM EDT
Moon 2:38 PM EDT 12:16 AM EDT
Length of Visible Light 13h 45m
Length of Day
12h 53m
Tomorrow will be 2m 11s shorter.
First Quarter, 52% of the Moon is Illuminated
Today
First Quarter
Sep 8
Full
Sep 15
Last Quarter
Sep 24
New
Oct 1
First Quarter

Today's Extremes

State Highs State Lows

Community

WunderPhotos

Upload Photos

1,749,682 photos uploaded!

WunderBlogs® & News

Nearby

Air Quality

  Air Quality AQ Index Pollutant
Yesterday Moderate
PM2.5
Yesterday Good
OZONE
Current Good
OZONE
Tuesday Moderate
PM2.5
Tuesday Good
OZONE

Snow Depth

Station Depth Elevation
No new snow has been reported.

Earthquake Activity

City Distance Mag. Time & Date
No recent earthquake activity has been reported nearby.
Minimum magnitude displayed is 2.5.

Coastal Water Temperatures

Place Temperature
No Stations Reporting

Nearby Weather Stations